createdAt,value
2022-11-15T00:01:18.706Z,21.33
2022-11-15T00:03:47.084Z,21.15
2022-11-15T00:06:14.641Z,22.70
2022-11-15T00:08:41.807Z,22.08
2022-11-15T00:11:12.511Z,22.67
2022-11-15T00:13:40.239Z,19.88
2022-11-15T00:16:07.671Z,21.85
2022-11-15T00:18:34.990Z,20.55
2022-11-15T00:21:10.218Z,22.95
2022-11-15T00:23:38.201Z,20.40
2022-11-15T00:26:05.999Z,19.65
2022-11-15T00:28:33.580Z,21.95
2022-11-15T00:31:06.292Z,19.98
2022-11-15T00:33:34.548Z,21.60
2022-11-15T00:36:11.559Z,21.98
2022-11-15T00:38:41.072Z,22.17
2022-11-15T00:41:10.170Z,23.65
2022-11-15T00:43:37.981Z,20.83
2022-11-15T00:46:05.604Z,22.77
2022-11-15T00:48:33.073Z,21.27
2022-11-15T00:51:00.293Z,23.48
2022-11-15T00:53:27.585Z,23.95
2022-11-15T00:55:54.822Z,22.95
2022-11-15T00:58:22.033Z,22.77
2022-11-15T01:00:49.360Z,24.30
2022-11-15T01:03:16.695Z,23.75
2022-11-15T01:05:43.928Z,23.35
2022-11-15T01:08:15.493Z,22.92
2022-11-15T01:10:43.447Z,23.50
2022-11-15T01:13:10.810Z,22.35
2022-11-15T01:15:42.024Z,23.58
2022-11-15T01:18:10.130Z,23.25
2022-11-15T01:20:42.912Z,21.55
2022-11-15T01:23:10.502Z,20.80
2022-11-15T01:25:38.578Z,21.77
2022-11-15T01:28:05.787Z,22.27
2022-11-15T01:30:33.118Z,20.63
2022-11-15T01:33:00.407Z,22.45
2022-11-15T01:35:27.612Z,19.58
2022-11-15T01:37:54.779Z,20.52
2022-11-15T01:40:22.057Z,18.90
2022-11-15T01:42:49.232Z,22.63
2022-11-15T01:45:17.580Z,22.50
2022-11-15T01:47:53.559Z,21.20
2022-11-15T01:50:28.866Z,20.70
2022-11-15T01:52:56.652Z,23.48
2022-11-15T01:55:29.838Z,21.50
2022-11-15T01:58:03.928Z,21.33
2022-11-15T02:00:32.634Z,23.52
2022-11-15T02:02:59.908Z,21.88
2022-11-15T02:05:27.275Z,21.90
2022-11-15T02:07:55.324Z,21.15
2022-11-15T02:10:25.524Z,21.40
2022-11-15T02:12:54.235Z,22.50
2022-11-15T02:15:22.044Z,19.95
2022-11-15T02:18:16.157Z,22.17
2022-11-15T02:21:14.199Z,22.85
2022-11-15T02:24:34.045Z,23.08
2022-11-15T02:27:40.820Z,21.23
2022-11-15T02:30:42.361Z,20.00
2022-11-15T02:33:29.812Z,19.52
2022-11-15T02:36:14.821Z,19.80
2022-11-15T02:39:08.664Z,20.00
2022-11-15T02:41:55.367Z,18.60
2022-11-15T02:44:44.463Z,19.90
2022-11-15T02:47:18.229Z,17.13
2022-11-15T02:49:51.288Z,19.83
2022-11-15T02:55:00.612Z,17.77
2022-11-15T02:58:09.098Z,20.48
2022-11-15T03:00:51.444Z,19.58
2022-11-15T03:03:49.112Z,20.87
2022-11-15T03:07:02.347Z,19.42
2022-11-15T03:09:50.012Z,18.00
2022-11-15T03:12:51.235Z,18.67
2022-11-15T03:15:32.794Z,18.58
2022-11-15T03:18:19.254Z,20.20
2022-11-15T03:20:49.588Z,23.38
2022-11-15T03:23:18.420Z,22.80
2022-11-15T03:25:51.111Z,22.13
2022-11-15T03:28:29.538Z,19.80
2022-11-15T03:30:58.065Z,22.17
2022-11-15T03:33:26.691Z,19.77
2022-11-15T03:35:56.164Z,21.85
2022-11-15T03:38:27.455Z,21.98
2022-11-15T03:41:01.323Z,21.73
2022-11-15T03:43:51.768Z,20.95
2022-11-15T03:46:29.271Z,21.52
2022-11-15T03:49:20.747Z,20.05
2022-11-15T03:51:48.098Z,17.35
2022-11-15T03:54:15.413Z,18.55
2022-11-15T03:56:42.618Z,17.75
2022-11-15T03:59:09.785Z,18.15
2022-11-15T04:01:36.983Z,18.08
2022-11-15T04:04:04.327Z,17.88
2022-11-15T04:06:31.482Z,16.95
2022-11-15T04:08:58.694Z,16.95
2022-11-15T04:11:25.860Z,18.15
2022-11-15T04:13:53.068Z,18.00
2022-11-15T04:16:20.250Z,18.17
2022-11-15T04:19:07.472Z,17.77
2022-11-15T04:21:53.349Z,17.40
2022-11-15T04:24:20.557Z,18.67
2022-11-15T04:26:47.737Z,17.33
2022-11-15T04:29:33.667Z,19.42
2022-11-15T04:32:02.838Z,19.50
2022-11-15T04:34:30.117Z,20.90
2022-11-15T04:37:12.713Z,22.02
2022-11-15T04:39:41.888Z,20.77
2022-11-15T04:42:09.775Z,24.05
2022-11-15T04:44:36.954Z,23.52
2022-11-15T04:47:04.569Z,25.05
2022-11-15T04:49:31.773Z,20.58
2022-11-15T04:51:59.053Z,22.90
2022-11-15T04:54:26.427Z,19.25
2022-11-15T04:56:53.697Z,17.10
2022-11-15T04:59:20.910Z,16.02
2022-11-15T05:01:48.135Z,19.60
2022-11-15T05:04:21.585Z,20.65
2022-11-15T05:06:51.545Z,20.25
2022-11-15T05:09:21.359Z,20.20
2022-11-15T05:11:48.975Z,20.35
2022-11-15T05:14:16.674Z,20.05
2022-11-15T05:16:44.209Z,18.83
2022-11-15T05:19:11.363Z,21.10
2022-11-15T05:21:38.571Z,19.92
2022-11-15T05:24:06.477Z,21.95
2022-11-15T05:26:33.667Z,19.70
2022-11-15T05:29:00.915Z,20.20
2022-11-15T05:31:29.153Z,23.45
2022-11-15T05:33:59.316Z,22.23
2022-11-15T05:36:36.572Z,25.17
2022-11-15T05:39:09.028Z,28.20
2022-11-15T05:41:47.462Z,28.60
2022-11-15T05:44:20.994Z,26.77
2022-11-15T05:46:52.191Z,32.80
2022-11-15T05:49:25.826Z,29.10
2022-11-15T05:51:54.841Z,27.85
2022-11-15T05:54:24.722Z,25.92
2022-11-15T05:56:52.616Z,25.02
2022-11-15T05:59:20.687Z,24.63
2022-11-15T06:01:48.005Z,23.50
2022-11-15T06:04:15.200Z,23.77
2022-11-15T06:06:42.339Z,25.38
2022-11-15T06:09:09.470Z,25.50
2022-11-15T06:11:36.689Z,25.30
2022-11-15T06:14:04.008Z,23.75
2022-11-15T06:16:31.194Z,24.52
2022-11-15T06:18:58.384Z,21.23
2022-11-15T06:21:25.640Z,22.85
2022-11-15T06:23:52.824Z,22.05
2022-11-15T06:26:20.350Z,23.48
2022-11-15T06:28:47.508Z,22.90
2022-11-15T06:31:14.705Z,22.95
2022-11-15T06:33:42.006Z,23.88
2022-11-15T06:36:18.163Z,21.48
2022-11-15T06:38:46.161Z,23.98
2022-11-15T06:41:15.116Z,21.60
2022-11-15T06:43:42.639Z,21.45
2022-11-15T06:46:10.795Z,22.90
2022-11-15T06:48:38.771Z,21.20
2022-11-15T06:51:06.329Z,21.38
2022-11-15T06:53:34.478Z,22.23
2022-11-15T06:56:07.458Z,24.67
2022-11-15T06:58:35.942Z,21.40
2022-11-15T07:01:10.491Z,24.40
2022-11-15T07:03:41.421Z,22.13
2022-11-15T07:06:10.051Z,22.02
2022-11-15T07:08:37.408Z,22.02
2022-11-15T07:11:08.864Z,22.80
2022-11-15T07:13:38.071Z,23.13
2022-11-15T07:16:11.291Z,20.27
2022-11-15T07:18:41.219Z,21.58
2022-11-15T07:21:11.889Z,19.63
2022-11-15T07:23:40.412Z,19.83
2022-11-15T07:26:09.262Z,23.17
2022-11-15T07:28:36.777Z,23.38
2022-11-15T07:31:09.555Z,22.38
2022-11-15T07:33:37.190Z,22.92
2022-11-15T07:36:07.232Z,23.05
2022-11-15T07:38:42.138Z,23.92
2022-11-15T07:41:10.755Z,23.67
2022-11-15T07:43:38.957Z,22.48
2022-11-15T07:46:10.176Z,24.38
2022-11-15T07:48:44.605Z,24.25
2022-11-15T07:51:17.296Z,22.67
2022-11-15T07:53:44.958Z,22.92
2022-11-15T07:56:13.061Z,22.13
2022-11-15T07:58:41.103Z,21.58
2022-11-15T08:01:12.626Z,21.25
2022-11-15T08:03:39.990Z,19.50
2022-11-15T08:06:07.252Z,17.17
2022-11-15T08:08:34.428Z,14.60
2022-11-15T08:11:01.964Z,14.23
2022-11-15T08:13:29.500Z,14.18
2022-11-15T08:16:02.067Z,13.68
2022-11-15T08:18:29.393Z,14.03
2022-11-15T08:21:01.381Z,13.63
2022-11-15T08:23:28.841Z,12.90
2022-11-15T08:26:05.039Z,12.45
2022-11-15T08:28:33.132Z,12.95
2022-11-15T08:31:00.365Z,13.70
2022-11-15T08:33:28.946Z,13.98
2022-11-15T08:36:01.450Z,13.80
2022-11-15T08:38:32.468Z,12.67
2022-11-15T08:41:04.951Z,11.80
2022-11-15T08:43:32.350Z,11.03
2022-11-15T08:46:00.138Z,10.52
2022-11-15T08:48:27.407Z,9.93
2022-11-15T08:50:56.444Z,9.38
2022-11-15T08:53:24.380Z,9.73
2022-11-15T08:55:51.529Z,9.82
2022-11-15T08:58:18.691Z,9.88
2022-11-15T09:00:45.839Z,9.60
2022-11-15T09:03:13.008Z,9.68
2022-11-15T09:05:40.238Z,9.52
2022-11-15T09:08:32.422Z,9.40
2022-11-15T09:10:55.042Z,9.55
2022-11-15T09:13:22.933Z,8.73
2022-11-15T09:15:50.082Z,8.27
2022-11-15T09:18:17.230Z,8.43
2022-11-15T09:20:44.365Z,9.13
2022-11-15T09:23:11.520Z,8.40
2022-11-15T09:25:38.667Z,7.70
2022-11-15T09:28:09.572Z,7.38
2022-11-15T09:30:36.730Z,7.07
2022-11-15T09:33:11.861Z,7.32
2022-11-15T09:35:39.161Z,6.38
2022-11-15T09:38:06.329Z,6.32
2022-11-15T09:40:38.314Z,6.05
2022-11-15T09:43:44.326Z,6.10
2022-11-15T09:46:52.080Z,6.30
2022-11-15T09:49:19.983Z,6.00
2022-11-15T09:51:52.183Z,5.50
2022-11-15T09:54:52.227Z,5.65
2022-11-15T09:57:37.606Z,5.60
2022-11-15T10:03:34.417Z,5.40
2022-11-15T10:06:06.112Z,5.45
2022-11-15T10:09:02.530Z,5.03
2022-11-15T10:11:37.836Z,4.80
2022-11-15T10:14:20.599Z,4.60
2022-11-15T10:17:25.018Z,4.57
2022-11-15T10:20:21.501Z,4.70
2022-11-15T10:22:57.459Z,4.80
2022-11-15T10:25:31.923Z,5.43
2022-11-15T10:28:15.313Z,5.70
2022-11-15T10:30:49.593Z,5.45
2022-11-15T10:33:35.153Z,5.93
2022-11-15T10:36:14.085Z,5.82
2022-11-15T10:39:13.450Z,5.90
2022-11-15T10:41:43.126Z,6.38
2022-11-15T10:44:32.237Z,6.18
2022-11-15T10:46:59.372Z,5.90
2022-11-15T10:49:29.930Z,5.70
2022-11-15T10:52:13.124Z,6.53
2022-11-15T10:54:47.274Z,6.93
2022-11-15T10:57:18.674Z,6.32
2022-11-15T10:59:55.195Z,5.65
2022-11-15T11:02:36.783Z,6.40
2022-11-15T11:05:26.312Z,6.32
2022-11-15T11:08:04.402Z,6.05
2022-11-15T11:10:50.844Z,5.88
2022-11-15T11:13:33.368Z,5.40
2022-11-15T11:16:20.292Z,5.93
2022-11-15T11:19:09.058Z,5.30
2022-11-15T11:21:50.609Z,5.70
2022-11-15T11:24:31.811Z,5.43
2022-11-15T11:27:37.627Z,5.75
2022-11-15T11:30:10.918Z,5.10
2022-11-15T11:33:21.119Z,5.22
2022-11-15T11:36:22.835Z,6.30
2022-11-15T11:39:08.828Z,5.63
2022-11-15T11:41:58.616Z,5.32
2022-11-15T11:44:54.063Z,5.28
2022-11-15T11:47:34.578Z,4.88
2022-11-15T11:50:21.554Z,5.00
2022-11-15T11:53:06.721Z,4.97
2022-11-15T11:55:53.707Z,5.18
2022-11-15T11:58:36.690Z,5.10
2022-11-15T12:04:00.345Z,5.07
2022-11-15T12:06:43.556Z,5.07
2022-11-15T12:09:31.739Z,6.05
2022-11-15T12:12:13.989Z,5.65
2022-11-15T12:14:54.763Z,6.43
2022-11-15T12:17:35.079Z,5.60
2022-11-15T12:20:20.616Z,5.68
2022-11-15T12:23:12.526Z,5.63
2022-11-15T12:26:01.186Z,5.45
2022-11-15T12:29:06.456Z,5.25
2022-11-15T12:31:53.463Z,5.50
2022-11-15T12:34:20.507Z,5.68
2022-11-15T12:36:50.370Z,5.70
2022-11-15T12:39:19.385Z,5.32
2022-11-15T12:41:55.510Z,5.22
2022-11-15T12:44:31.465Z,5.60
2022-11-15T12:46:58.537Z,5.40
2022-11-15T12:49:28.367Z,5.50
2022-11-15T12:51:58.362Z,5.43
2022-11-15T12:54:25.462Z,5.20
2022-11-15T12:57:04.627Z,5.38
2022-11-15T13:00:02.712Z,4.63
2022-11-15T13:02:49.385Z,4.82
2022-11-15T13:05:16.608Z,5.50
2022-11-15T13:07:43.887Z,5.15
2022-11-15T13:10:11.058Z,4.88
2022-11-15T13:12:47.206Z,5.00
2022-11-15T13:15:14.346Z,4.90
2022-11-15T13:17:46.159Z,4.97
2022-11-15T13:20:19.672Z,5.45
2022-11-15T13:23:05.609Z,5.60
2022-11-15T13:26:13.092Z,5.70
2022-11-15T13:28:46.246Z,4.90
2022-11-15T13:31:26.740Z,4.90
2022-11-15T13:34:05.345Z,4.97
2022-11-15T13:36:41.068Z,5.20
2022-11-15T13:39:33.577Z,5.40
2022-11-15T13:42:01.374Z,5.40
2022-11-15T13:44:33.388Z,5.47
2022-11-15T13:47:16.484Z,5.93
2022-11-15T13:49:43.737Z,6.07
2022-11-15T13:52:17.375Z,7.18
2022-11-15T13:55:21.610Z,6.97
2022-11-15T13:57:57.743Z,6.90
2022-11-15T14:00:38.564Z,7.05
2022-11-15T14:03:18.042Z,7.28
2022-11-15T14:06:12.735Z,6.95
2022-11-15T14:09:12.070Z,6.95
2022-11-15T14:11:57.625Z,7.63
2022-11-15T14:14:28.036Z,7.40
2022-11-15T14:17:01.273Z,7.78
2022-11-15T14:19:28.374Z,8.30
2022-11-15T14:22:17.156Z,8.52
2022-11-15T14:25:08.932Z,9.02
2022-11-15T14:27:36.307Z,9.30
2022-11-15T14:30:03.971Z,8.60
2022-11-15T14:32:48.004Z,9.20
2022-11-15T14:35:23.220Z,9.48
2022-11-15T14:37:51.055Z,9.05
2022-11-15T14:40:22.992Z,8.25
2022-11-15T14:42:51.131Z,9.50
2022-11-15T14:45:22.762Z,10.07
2022-11-15T14:47:50.258Z,9.98
2022-11-15T14:50:22.483Z,10.23
2022-11-15T14:52:50.049Z,11.10
2022-11-15T14:55:35.931Z,11.50
2022-11-15T14:58:10.844Z,11.20
2022-11-15T15:00:40.973Z,9.85
2022-11-15T15:03:09.187Z,10.52
2022-11-15T15:05:43.453Z,9.02
2022-11-15T15:08:11.827Z,9.07
2022-11-15T15:10:43.985Z,9.35
2022-11-15T15:13:19.589Z,8.00
2022-11-15T15:15:48.619Z,9.10
2022-11-15T15:18:16.377Z,8.82
2022-11-15T15:20:46.776Z,9.18
2022-11-15T15:23:20.050Z,9.65
2022-11-15T15:25:49.944Z,8.38
2022-11-15T15:28:17.327Z,9.20
2022-11-15T15:30:44.631Z,10.43
2022-11-15T15:33:11.839Z,8.90
2022-11-15T15:35:39.190Z,9.07
2022-11-15T15:38:06.438Z,9.98
2022-11-15T15:40:34.396Z,9.35
2022-11-15T15:43:01.649Z,9.93
2022-11-15T15:45:30.517Z,9.80
2022-11-15T15:47:57.894Z,10.27
2022-11-15T15:50:32.839Z,9.68
2022-11-15T15:53:03.165Z,10.68
2022-11-15T15:55:31.236Z,10.18
2022-11-15T15:57:58.862Z,10.65
2022-11-15T16:00:26.404Z,10.10
2022-11-15T16:02:54.576Z,10.80
2022-11-15T16:05:23.131Z,11.05
2022-11-15T16:07:50.704Z,11.48
2022-11-15T16:10:29.455Z,12.00
2022-11-15T16:12:58.210Z,11.82
2022-11-15T16:15:30.342Z,11.60
2022-11-15T16:18:00.920Z,11.33
2022-11-15T16:20:34.672Z,11.98
2022-11-15T16:23:09.020Z,11.73
2022-11-15T16:25:49.674Z,11.60
2022-11-15T16:28:22.387Z,13.13
2022-11-15T16:31:00.810Z,12.82
2022-11-15T16:33:28.233Z,12.38
2022-11-15T16:35:55.396Z,11.60
2022-11-15T16:38:22.609Z,13.20
2022-11-15T16:40:49.895Z,14.35
2022-11-15T16:43:17.248Z,13.93
2022-11-15T16:45:44.842Z,14.23
2022-11-15T16:48:26.952Z,13.43
2022-11-15T16:51:00.704Z,13.98
2022-11-15T16:53:28.237Z,13.57
2022-11-15T16:55:56.070Z,14.18
2022-11-15T16:58:23.959Z,13.70
2022-11-15T17:00:54.008Z,13.90
2022-11-15T17:03:25.144Z,14.00
2022-11-15T17:05:52.856Z,14.57
2022-11-15T17:08:21.857Z,13.65
2022-11-15T17:10:49.408Z,14.77
2022-11-15T17:13:17.070Z,14.35
2022-11-15T17:15:44.289Z,13.50
2022-11-15T17:18:15.937Z,13.50
2022-11-15T17:20:43.513Z,13.88
2022-11-15T17:23:15.094Z,14.30
2022-11-15T17:25:42.493Z,13.82
2022-11-15T17:28:10.408Z,13.05
2022-11-15T17:30:41.800Z,14.63
2022-11-15T17:33:09.031Z,13.88
2022-11-15T17:35:36.263Z,13.85
2022-11-15T17:38:03.478Z,14.10
2022-11-15T17:40:30.940Z,14.63
2022-11-15T17:42:58.078Z,13.93
2022-11-15T17:45:25.302Z,14.00
2022-11-15T17:47:53.744Z,13.63
2022-11-15T17:50:20.899Z,12.98
2022-11-15T17:52:48.045Z,14.65
2022-11-15T17:55:15.429Z,13.38
2022-11-15T17:57:44.141Z,14.45
2022-11-15T18:00:12.380Z,14.25
2022-11-15T18:02:39.588Z,13.63
2022-11-15T18:05:07.598Z,13.40
2022-11-15T18:07:34.827Z,13.93
2022-11-15T18:10:02.012Z,13.25
2022-11-15T18:12:29.461Z,12.50
2022-11-15T18:14:57.952Z,13.65
2022-11-15T18:17:25.177Z,12.68
2022-11-15T18:19:52.338Z,13.30
2022-11-15T18:22:20.432Z,12.52
2022-11-15T18:24:48.193Z,14.02
2022-11-15T18:27:15.372Z,12.45
2022-11-15T18:29:42.668Z,13.07
2022-11-15T18:32:15.035Z,12.30
2022-11-15T18:34:42.165Z,11.93
2022-11-15T18:37:09.687Z,12.43
2022-11-15T18:39:37.769Z,10.45
2022-11-15T18:42:05.386Z,12.43
2022-11-15T18:44:32.660Z,10.52
2022-11-15T18:47:00.181Z,11.65
2022-11-15T18:49:27.664Z,11.27
2022-11-15T18:51:56.006Z,10.80
2022-11-15T18:54:26.875Z,11.38
2022-11-15T18:56:58.017Z,10.80
2022-11-15T18:59:27.585Z,10.02
2022-11-15T19:01:56.036Z,9.90
2022-11-15T19:04:23.433Z,9.90
2022-11-15T19:06:51.307Z,10.52
2022-11-15T19:09:19.673Z,10.05
2022-11-15T19:11:51.419Z,10.63
2022-11-15T19:14:23.947Z,10.13
2022-11-15T19:16:55.050Z,10.45
2022-11-15T19:19:56.996Z,12.68
2022-11-15T19:22:24.543Z,12.82
2022-11-15T19:24:51.732Z,12.18
2022-11-15T19:27:19.155Z,13.13
2022-11-15T19:29:46.362Z,12.63
2022-11-15T19:32:13.639Z,11.25
2022-11-15T19:34:41.637Z,12.43
2022-11-15T19:37:08.824Z,11.73
2022-11-15T19:39:40.002Z,12.20
2022-11-15T19:42:08.625Z,13.70
2022-11-15T19:44:35.808Z,15.38
2022-11-15T19:47:03.017Z,12.50
2022-11-15T19:49:30.174Z,11.13
2022-11-15T19:51:57.560Z,11.93
2022-11-15T19:54:24.822Z,10.93
2022-11-15T19:56:52.092Z,12.43
2022-11-15T19:59:19.318Z,11.48
2022-11-15T20:01:46.715Z,10.95
2022-11-15T20:04:13.867Z,10.27
2022-11-15T20:06:43.492Z,10.40
2022-11-15T20:09:16.156Z,11.73
2022-11-15T20:11:44.035Z,12.18
2022-11-15T20:14:12.931Z,13.00
2022-11-15T20:16:40.491Z,11.75
2022-11-15T20:19:08.691Z,11.88
2022-11-15T20:21:36.142Z,11.57
2022-11-15T20:24:04.591Z,11.88
2022-11-15T20:26:32.215Z,11.45
2022-11-15T20:29:02.010Z,10.93
2022-11-15T20:31:30.685Z,11.75
2022-11-15T20:33:58.809Z,10.60
2022-11-15T20:36:26.311Z,11.57
2022-11-15T20:39:00.372Z,11.35
2022-11-15T20:41:28.271Z,11.70
2022-11-15T20:43:55.924Z,12.80
2022-11-15T20:46:23.179Z,12.85
2022-11-15T20:48:50.394Z,11.57
2022-11-15T20:51:19.498Z,12.40
2022-11-15T20:53:47.788Z,11.45
2022-11-15T20:56:20.428Z,11.77
2022-11-15T20:58:50.364Z,12.20
2022-11-15T21:01:23.490Z,12.95
2022-11-15T21:03:55.596Z,11.35
2022-11-15T21:06:25.099Z,11.95
2022-11-15T21:09:12.727Z,11.13
2022-11-15T21:11:59.222Z,10.90
2022-11-15T21:14:26.405Z,11.88
2022-11-15T21:16:53.715Z,11.80
2022-11-15T21:19:26.641Z,11.48
2022-11-15T21:21:56.141Z,11.60
2022-11-15T21:24:24.618Z,10.70
2022-11-15T21:26:53.041Z,10.88
2022-11-15T21:29:20.637Z,10.45
2022-11-15T21:31:50.980Z,11.50
2022-11-15T21:34:19.178Z,11.98
2022-11-15T21:36:46.651Z,11.57
2022-11-15T21:39:13.890Z,11.30
2022-11-15T21:41:41.164Z,12.10
2022-11-15T21:44:08.669Z,12.10
2022-11-15T21:46:37.196Z,13.07
2022-11-15T21:49:05.687Z,14.02
2022-11-15T21:51:33.601Z,12.57
2022-11-15T21:54:00.915Z,12.35
2022-11-15T21:56:29.637Z,11.15
2022-11-15T21:58:57.173Z,11.95
2022-11-15T22:01:44.683Z,11.57
2022-11-15T22:04:12.369Z,11.98
2022-11-15T22:06:39.782Z,12.65
2022-11-15T22:09:07.655Z,12.60
2022-11-15T22:11:35.589Z,12.55
2022-11-15T22:14:03.380Z,12.70
2022-11-15T22:16:31.577Z,12.73
2022-11-15T22:18:59.322Z,11.70
2022-11-15T22:21:26.649Z,12.70
2022-11-15T22:23:53.844Z,11.88
2022-11-15T22:26:23.765Z,13.52
2022-11-15T22:28:51.849Z,12.07
2022-11-15T22:31:19.541Z,13.13
2022-11-15T22:33:46.969Z,12.02
2022-11-15T22:36:14.742Z,12.18
2022-11-15T22:38:42.114Z,12.50
2022-11-15T22:41:09.454Z,12.70
2022-11-15T22:43:37.162Z,13.73
2022-11-15T22:46:05.603Z,11.65
2022-11-15T22:48:37.560Z,14.75
2022-11-15T22:51:06.660Z,14.80
2022-11-15T22:53:33.911Z,14.15
2022-11-15T22:56:04.354Z,14.05
2022-11-15T22:58:33.227Z,13.35
2022-11-15T23:01:05.320Z,13.52
2022-11-15T23:03:34.062Z,13.27
2022-11-15T23:06:05.221Z,15.68
2022-11-15T23:08:33.228Z,16.08
2022-11-15T23:11:24.065Z,14.93
2022-11-15T23:13:52.236Z,14.40
2022-11-15T23:16:23.749Z,16.02
2022-11-15T23:18:57.708Z,16.02
2022-11-15T23:21:53.804Z,16.42
2022-11-15T23:24:21.956Z,15.52
2022-11-15T23:26:53.434Z,15.85
2022-11-15T23:29:23.484Z,16.67
2022-11-15T23:32:11.187Z,17.30
2022-11-15T23:34:42.720Z,17.70
2022-11-15T23:37:14.507Z,17.92
2022-11-15T23:39:41.718Z,17.10
2022-11-15T23:42:09.784Z,17.45
2022-11-15T23:44:37.329Z,19.25
2022-11-15T23:47:04.810Z,19.90
2022-11-15T23:49:32.095Z,18.40
2022-11-15T23:51:59.302Z,20.02
2022-11-15T23:54:26.663Z,19.55
2022-11-15T23:56:53.932Z,18.25
2022-11-15T23:59:21.188Z,20.65
